Time;durP1;ratioP1;P1;durP2;ratioP2;P2;SDS_P1;SDS_P2;PMS_P1;PMS_P2;Temp;Humidity;BMP_temperature;BMP_pressure;BME280_temperature;BME280_humidity;BME280_pressure;Samples;Min_cycle;Max_cycle;Signal;HPM_P1;HPM_P2
2022/12/16 00:02:24;;;;;;;83.55;39.05;;;0.00;87.40;;;;;;4986742;28;20030;-84
2022/12/16 00:04:56;;;;;;;88.45;40.85;;;0.00;87.30;;;;;;4991588;28;20038;-82
2022/12/16 00:07:31;;;;;;;84.65;40.05;;;0.00;87.50;;;;;;4991590;28;20031;-83
2022/12/16 00:09:57;;;;;;;94.28;42.83;;;-0.20;87.40;;;;;;4983769;28;20030;-81
2022/12/16 00:12:23;;;;;;;89.75;41.30;;;-0.20;87.80;;;;;;4997322;28;20026;-81
2022/12/16 00:14:49;;;;;;;87.88;42.10;;;-0.20;88.10;;;;;;4964791;28;20026;-84
2022/12/16 00:17:14;;;;;;;92.88;40.80;;;-0.20;88.10;;;;;;4947223;28;20049;-84
2022/12/16 00:19:40;;;;;;;89.32;40.40;;;-0.20;88.10;;;;;;4978997;28;20052;-84
2022/12/16 00:22:05;;;;;;;93.90;41.90;;;-0.20;88.00;;;;;;4978773;28;20149;-85
2022/12/16 00:24:32;;;;;;;96.47;42.05;;;-0.20;88.10;;;;;;4979675;28;20046;-87
2022/12/16 00:26:59;;;;;;;93.82;41.13;;;-0.30;88.40;;;;;;4980335;28;20097;-87
2022/12/16 00:29:25;;;;;;;92.78;40.45;;;-0.30;88.40;;;;;;4963057;28;20039;-84
2022/12/16 00:31:54;;;;;;;95.35;42.65;;;-0.40;88.70;;;;;;4964170;28;20073;-86
2022/12/16 00:34:21;;;;;;;96.47;41.58;;;-0.50;89.10;;;;;;4963966;28;20026;-86
2022/12/16 00:36:46;;;;;;;90.18;40.40;;;-0.50;89.30;;;;;;4980170;28;20027;-86
2022/12/16 00:39:14;;;;;;;87.65;39.45;;;-0.60;89.60;;;;;;4963724;28;20042;-81
2022/12/16 00:41:43;;;;;;;83.10;37.88;;;-0.50;89.70;;;;;;4963471;28;20071;-86
2022/12/16 00:44:11;;;;;;;84.30;39.35;;;-0.50;89.70;;;;;;4996895;28;20030;-87
2022/12/16 00:46:37;;;;;;;81.68;39.25;;;-0.50;89.60;;;;;;4979434;28;20050;-85
2022/12/16 00:49:03;;;;;;;80.63;36.40;;;-0.50;89.60;;;;;;4978579;28;20042;-89
2022/12/16 00:51:32;;;;;;;84.55;39.17;;;-0.60;89.40;;;;;;4996398;28;20105;-87
2022/12/16 00:53:59;;;;;;;77.13;35.13;;;-0.60;89.40;;;;;;4979740;28;20022;-86
2022/12/16 00:56:37;;;;;;;76.40;35.55;;;-0.60;89.70;;;;;;4963022;28;20022;-88
2022/12/16 00:59:05;;;;;;;85.10;37.22;;;-0.50;89.70;;;;;;4978754;28;20022;-86
2022/12/16 01:01:36;;;;;;;76.45;36.58;;;-0.50;89.10;;;;;;4962831;28;20034;-87
2022/12/16 01:04:12;;;;;;;76.60;36.10;;;-0.60;89.10;;;;;;4962458;28;20034;-82
2022/12/16 01:06:38;;;;;;;75.85;35.72;;;-0.60;89.00;;;;;;4978410;28;20505;-83
2022/12/16 01:09:05;;;;;;;81.80;36.58;;;-0.60;89.10;;;;;;4961725;28;20066;-84
2022/12/16 01:11:55;;;;;;;80.80;38.03;;;-0.70;89.30;;;;;;4963588;28;20038;-82
2022/12/16 01:14:24;;;;;;;74.50;36.58;;;-0.60;89.40;;;;;;4997794;28;20029;-87
2022/12/16 01:16:54;;;;;;;78.28;36.63;;;-0.60;89.40;;;;;;4962079;28;20034;-87
2022/12/16 01:19:19;;;;;;;72.03;34.15;;;-0.50;89.90;;;;;;4977437;28;20027;-86
2022/12/16 01:21:54;;;;;;;74.78;35.85;;;-0.50;89.00;;;;;;4995592;28;20037;-87
2022/12/16 01:24:20;;;;;;;70.88;33.00;;;-0.50;88.80;;;;;;4980706;28;20025;-84
2022/12/16 01:26:50;;;;;;;73.63;34.17;;;-0.50;88.70;;;;;;4994769;28;20031;-81
2022/12/16 01:29:24;;;;;;;72.03;33.17;;;-0.50;88.40;;;;;;4994935;28;20050;-83
2022/12/16 01:31:50;;;;;;;71.20;33.63;;;-0.60;88.40;;;;;;4978297;28;20022;-83
2022/12/16 01:34:18;;;;;;;73.72;34.72;;;-0.60;88.70;;;;;;4961079;28;20093;-84
2022/12/16 01:36:44;;;;;;;69.32;33.95;;;-0.60;88.70;;;;;;4961544;28;20085;-81
2022/12/16 01:39:13;;;;;;;77.55;37.53;;;-0.60;88.60;;;;;;4977124;28;20521;-82
2022/12/16 01:41:39;;;;;;;75.95;36.10;;;-0.60;88.60;;;;;;4961399;28;20037;-82
2022/12/16 01:44:16;;;;;;;72.97;35.90;;;-0.60;88.70;;;;;;4961496;28;20030;-81
2022/12/16 01:46:54;;;;;;;71.57;34.80;;;-0.60;88.40;;;;;;4976826;28;20402;-82
2022/12/16 01:49:42;;;;;;;78.57;36.80;;;-0.60;88.90;;;;;;4946083;28;20093;-82
2022/12/16 01:52:13;;;;;;;73.15;38.10;;;-0.60;88.50;;;;;;4962472;28;20027;-83
2022/12/16 01:54:59;;;;;;;80.68;39.30;;;-0.60;88.50;;;;;;4961149;28;20040;-82
2022/12/16 01:57:50;;;;;;;74.72;36.67;;;-0.70;88.50;;;;;;4977516;28;20552;-82
2022/12/16 02:00:16;;;;;;;74.88;35.70;;;-0.70;88.50;;;;;;4960975;28;20045;-81
2022/12/16 02:02:45;;;;;;;78.35;36.40;;;-0.70;88.30;;;;;;4984251;28;20113;-81
2022/12/16 02:05:19;;;;;;;80.72;38.70;;;-0.70;88.00;;;;;;4983978;28;20541;-82
2022/12/16 02:08:17;;;;;;;77.78;38.25;;;-0.90;87.70;;;;;;4983884;28;20494;-85
2022/12/16 02:10:42;;;;;;;88.68;42.45;;;-1.00;88.30;;;;;;4968767;28;20030;-81
2022/12/16 02:13:14;;;;;;;81.93;39.55;;;-1.20;88.70;;;;;;4983586;28;20026;-84
2022/12/16 02:16:09;;;;;;;83.07;38.95;;;-1.20;89.10;;;;;;4983322;28;20081;-83
2022/12/16 02:18:54;;;;;;;88.90;42.53;;;-1.20;89.20;;;;;;4986609;28;20027;-81
2022/12/16 02:21:26;;;;;;;85.57;42.58;;;-1.10;89.90;;;;;;4991815;28;20538;-82
2022/12/16 02:24:14;;;;;;;82.32;40.60;;;-1.10;89.00;;;;;;4983658;28;20033;-81
2022/12/16 02:26:50;;;;;;;82.28;40.95;;;-1.10;88.80;;;;;;4983072;28;20057;-81
2022/12/16 02:29:44;;;;;;;83.50;40.45;;;-1.10;88.40;;;;;;4983598;28;20505;-82
2022/12/16 02:32:28;;;;;;;88.28;39.95;;;-1.20;88.40;;;;;;4983577;28;20026;-81
2022/12/16 02:35:11;;;;;;;84.63;41.28;;;-1.30;88.70;;;;;;4982710;28;20479;-81
2022/12/16 02:38:03;;;;;;;94.13;41.88;;;-1.30;89.00;;;;;;4983100;28;20096;-82
2022/12/16 02:40:56;;;;;;;88.28;41.80;;;-1.30;89.30;;;;;;4982743;28;20022;-81
2022/12/16 02:43:37;;;;;;;88.05;43.33;;;-1.30;89.40;;;;;;4985429;28;20030;-79
2022/12/16 02:46:05;;;;;;;88.65;43.83;;;-1.20;89.10;;;;;;4982729;28;20464;-81
2022/12/16 02:48:31;;;;;;;93.78;44.65;;;-1.20;89.00;;;;;;4967189;28;20475;-81
2022/12/16 02:50:56;;;;;;;93.97;43.17;;;-1.20;88.80;;;;;;4966775;28;20042;-80
2022/12/16 02:53:23;;;;;;;86.00;42.45;;;-1.30;88.60;;;;;;4982318;28;20034;-80
2022/12/16 02:56:03;;;;;;;84.53;41.63;;;-1.40;88.60;;;;;;4982795;28;20426;-80
2022/12/16 02:58:50;;;;;;;93.32;43.47;;;-1.40;88.80;;;;;;4999973;28;20034;-80
2022/12/16 03:01:26;;;;;;;84.30;40.72;;;-1.40;88.70;;;;;;4982532;28;20026;-82
2022/12/16 03:03:52;;;;;;;;;;;-1.40;88.70;;;;;;4982550;28;20073;-81
2022/12/16 03:06:18;;;;;;;81.65;38.70;;;-1.40;88.30;;;;;;4983138;28;19906;-85
2022/12/16 03:08:49;;;;;;;85.00;41.80;;;-1.40;88.40;;;;;;4983542;28;20052;-88
2022/12/16 03:11:17;;;;;;;88.20;42.40;;;-1.40;88.30;;;;;;4999250;28;20035;-81
2022/12/16 03:13:50;;;;;;;82.55;39.60;;;-1.40;88.60;;;;;;4980764;28;20026;-85
2022/12/16 03:16:19;;;;;;;82.22;39.60;;;-1.40;88.50;;;;;;4980921;28;20020;-81
2022/12/16 03:18:50;;;;;;;85.13;41.55;;;-1.40;88.50;;;;;;4948768;28;20046;-86
2022/12/16 03:21:21;;;;;;;78.90;39.70;;;-1.30;89.10;;;;;;4999132;28;20086;-87
2022/12/16 03:23:57;;;;;;;77.30;38.22;;;-1.30;88.30;;;;;;4949501;28;20030;-90
2022/12/16 03:26:37;;;;;;;77.25;37.40;;;-1.20;88.20;;;;;;4964283;28;20097;-87
2022/12/16 03:29:39;;;;;;;81.43;38.25;;;-1.20;88.00;;;;;;4981218;28;20030;-89
2022/12/16 03:32:44;;;;;;;71.78;36.63;;;-1.20;88.00;;;;;;4967298;28;20070;-91
2022/12/16 03:35:32;;;;;;;72.22;36.35;;;-1.20;87.70;;;;;;4893105;29;20492;-90
2022/12/16 03:37:58;;;;;;;74.95;36.58;;;-1.20;87.60;;;;;;4963255;28;20478;-88
2022/12/16 03:40:27;;;;;;;72.38;35.50;;;-1.20;87.60;;;;;;4998416;28;20038;-90
2022/12/16 03:42:56;;;;;;;69.55;35.47;;;-1.20;87.70;;;;;;4998095;28;20047;-82
2022/12/16 03:45:30;;;;;;;63.25;33.13;;;-1.20;87.60;;;;;;4979670;28;20054;-84
2022/12/16 03:47:58;;;;;;;61.88;32.83;;;-1.20;87.70;;;;;;4978705;28;20130;-83
2022/12/16 03:50:27;;;;;;;61.50;31.75;;;-1.20;87.30;;;;;;4978355;28;20031;-82
2022/12/16 03:52:52;;;;;;;60.80;31.20;;;-1.20;88.00;;;;;;4978363;28;20030;-82
2022/12/16 03:55:21;;;;;;;65.15;32.88;;;-1.20;87.20;;;;;;4978893;28;20485;-83
2022/12/16 03:57:47;;;;;;;63.65;33.67;;;-1.10;87.00;;;;;;4996420;28;20026;-82
2022/12/16 04:00:15;;;;;;;63.25;33.13;;;-1.10;86.90;;;;;;4979533;28;20070;-89
2022/12/16 04:02:41;;;;;;;63.83;33.10;;;-1.10;86.80;;;;;;4980731;28;20045;-89
2022/12/16 04:05:11;;;;;;;65.70;33.50;;;-1.10;86.60;;;;;;4980313;28;20129;-85
2022/12/16 04:07:36;;;;;;;62.90;32.88;;;-1.10;86.80;;;;;;4979891;28;20038;-85
2022/12/16 04:10:06;;;;;;;62.78;33.08;;;-1.20;87.20;;;;;;4979655;28;20463;-84
2022/12/16 04:24:18;;;;;;;60.65;32.85;;;-1.30;87.10;;;;;;4998059;28;20090;-85
2022/12/16 04:27:23;;;;;;;63.83;32.85;;;-1.40;86.70;;;;;;4996410;28;20069;-87
2022/12/16 04:29:16;;;;;;;59.63;30.77;;;-1.40;86.70;;;;;;5003596;28;20030;-87
2022/12/16 04:31:42;;;;;;;60.45;31.67;;;-1.40;87.00;;;;;;4999419;28;20083;-87
